createdAt,value
2019-01-27T00:01:23.934Z,-4.41
2019-01-27T00:03:52.559Z,-4.41
2019-01-27T00:06:22.024Z,-4.41
2019-01-27T00:08:51.085Z,-4.43
2019-01-27T00:11:18.296Z,-4.42
2019-01-27T00:13:47.300Z,-4.39
2019-01-27T00:16:16.258Z,-4.39
2019-01-27T00:18:44.379Z,-4.43
2019-01-27T00:21:13.521Z,-4.45
2019-01-27T00:23:42.139Z,-4.44
2019-01-27T00:26:11.518Z,-4.41
2019-01-27T00:28:38.668Z,-4.41
2019-01-27T00:31:05.784Z,-4.41
2019-01-27T00:33:33.144Z,-4.43
2019-01-27T00:36:01.730Z,-4.48
2019-01-27T00:38:28.968Z,-4.48
2019-01-27T00:40:56.147Z,-4.49
2019-01-27T00:43:26.345Z,-4.50
2019-01-27T00:45:53.726Z,-4.53
2019-01-27T00:48:20.834Z,-4.60
2019-01-27T00:50:47.966Z,-4.64
2019-01-27T00:53:18.393Z,-4.67
2019-01-27T00:55:48.704Z,-4.71
2019-01-27T00:58:15.804Z,-4.76
2019-01-27T01:00:45.358Z,-4.81
2019-01-27T01:03:14.450Z,-4.83
2019-01-27T01:05:45.239Z,-4.87
2019-01-27T01:08:12.708Z,-4.88
2019-01-27T01:10:39.843Z,-4.90
2019-01-27T01:13:08.955Z,-4.96
2019-01-27T01:15:38.161Z,-5.04
2019-01-27T01:18:07.755Z,-5.07
2019-01-27T01:20:35.299Z,-5.08
2019-01-27T01:23:04.700Z,-5.13
2019-01-27T01:25:32.032Z,-5.14
2019-01-27T01:27:59.328Z,-5.08
2019-01-27T01:30:27.647Z,-5.05
2019-01-27T01:32:55.220Z,-5.04
2019-01-27T01:35:24.133Z,-5.08
2019-01-27T01:37:53.271Z,-5.12
2019-01-27T01:40:20.782Z,-5.13
2019-01-27T01:42:49.742Z,-5.16
2019-01-27T01:45:28.091Z,-5.18
2019-01-27T01:47:57.925Z,-5.20
2019-01-27T01:50:26.953Z,-5.22
2019-01-27T01:52:54.093Z,-5.25
2019-01-27T01:55:22.732Z,-5.26
2019-01-27T01:57:51.717Z,-5.31
2019-01-27T02:00:22.242Z,-5.33
2019-01-27T02:02:49.949Z,-5.36
2019-01-27T02:05:18.411Z,-5.41
2019-01-27T02:07:46.101Z,-5.49
2019-01-27T02:10:14.745Z,-5.57
2019-01-27T02:12:43.068Z,-5.68
2019-01-27T02:15:34.584Z,-5.73
2019-01-27T02:18:01.885Z,-5.75
2019-01-27T02:20:31.603Z,-5.84
2019-01-27T02:23:01.125Z,-5.91
2019-01-27T02:25:28.459Z,-5.95
2019-01-27T02:27:57.530Z,-6.03
2019-01-27T02:30:25.014Z,-6.09
2019-01-27T02:32:52.384Z,-6.13
2019-01-27T02:35:19.895Z,-6.15
2019-01-27T02:37:47.117Z,-6.18
2019-01-27T02:40:14.646Z,-6.23
2019-01-27T02:42:42.105Z,-6.26
2019-01-27T02:45:10.638Z,-6.29
2019-01-27T02:47:37.941Z,-6.35
2019-01-27T02:50:05.749Z,-6.40
2019-01-27T02:52:33.053Z,-6.44
2019-01-27T02:55:01.521Z,-6.48
2019-01-27T02:57:30.527Z,-6.49
2019-01-27T02:59:58.148Z,-6.52
2019-01-27T03:02:25.280Z,-6.54
2019-01-27T03:04:54.112Z,-6.57
2019-01-27T03:07:32.848Z,-6.60
2019-01-27T03:10:00.177Z,-6.62
2019-01-27T03:12:27.674Z,-6.68
2019-01-27T03:14:56.620Z,-6.75
2019-01-27T03:17:27.396Z,-6.79
2019-01-27T03:19:54.765Z,-6.82
2019-01-27T03:22:23.935Z,-6.81
2019-01-27T03:24:51.119Z,-6.83
2019-01-27T03:27:20.037Z,-6.89
2019-01-27T03:29:47.268Z,-6.93
2019-01-27T03:32:17.492Z,-6.95
2019-01-27T03:34:47.368Z,-7.00
2019-01-27T03:37:14.744Z,-7.04
2019-01-27T03:39:47.793Z,-7.05
2019-01-27T03:42:16.121Z,-7.09
2019-01-27T03:44:46.458Z,-7.12
2019-01-27T03:47:16.883Z,-7.17
2019-01-27T03:49:48.271Z,-7.16
2019-01-27T03:52:18.883Z,-7.22
2019-01-27T03:54:46.288Z,-7.23
2019-01-27T03:57:13.686Z,-7.22
2019-01-27T03:59:40.984Z,-7.26
2019-01-27T04:02:08.297Z,-7.25
2019-01-27T04:04:37.223Z,-7.26
2019-01-27T04:07:07.587Z,-7.26
2019-01-27T04:09:34.835Z,-7.32
2019-01-27T04:12:02.354Z,-7.37
2019-01-27T04:14:29.548Z,-7.41
2019-01-27T04:16:57.984Z,-7.42
2019-01-27T04:19:26.190Z,-7.46
2019-01-27T04:21:53.559Z,-7.51
2019-01-27T04:24:20.668Z,-7.47
2019-01-27T04:26:47.815Z,-7.56
2019-01-27T04:29:14.928Z,-7.56
2019-01-27T04:31:42.054Z,-7.63
2019-01-27T04:34:09.210Z,-7.73
2019-01-27T04:36:36.304Z,-7.73
2019-01-27T04:39:07.827Z,-7.79
2019-01-27T04:41:37.232Z,-7.79
2019-01-27T04:44:04.608Z,-7.77
2019-01-27T04:46:31.719Z,-7.78
2019-01-27T04:48:58.813Z,-7.75
2019-01-27T04:51:25.917Z,-7.76
2019-01-27T04:53:56.035Z,-7.75
2019-01-27T04:56:26.005Z,-7.84
2019-01-27T04:58:54.563Z,-7.84
2019-01-27T05:01:26.604Z,-7.91
2019-01-27T05:04:01.162Z,-7.95
2019-01-27T05:06:30.159Z,-7.96
2019-01-27T05:08:57.391Z,-8.00
2019-01-27T05:11:27.818Z,-8.04
2019-01-27T05:13:56.275Z,-8.11
2019-01-27T05:16:25.256Z,-8.11
2019-01-27T05:18:54.302Z,-8.17
2019-01-27T05:21:22.775Z,-8.18
2019-01-27T05:23:50.116Z,-8.19
2019-01-27T05:26:17.279Z,-8.21
2019-01-27T05:28:46.231Z,-8.24
2019-01-27T05:31:13.450Z,-8.25
2019-01-27T05:33:40.586Z,-8.30
2019-01-27T05:36:08.781Z,-8.31
2019-01-27T05:38:36.193Z,-8.27
2019-01-27T05:41:06.397Z,-8.28
2019-01-27T05:43:34.613Z,-8.26
2019-01-27T05:46:02.833Z,-8.25
2019-01-27T05:48:30.351Z,-8.25
2019-01-27T05:51:00.806Z,-8.29
2019-01-27T05:53:29.826Z,-8.33
2019-01-27T05:55:57.129Z,-8.32
2019-01-27T05:58:24.263Z,-8.38
2019-01-27T06:00:54.000Z,-8.40
2019-01-27T06:03:24.250Z,-8.44
2019-01-27T06:05:54.187Z,-8.48
2019-01-27T06:08:24.416Z,-8.51
2019-01-27T06:10:51.510Z,-8.67
2019-01-27T06:13:18.733Z,-8.57
2019-01-27T06:15:46.152Z,-8.60
2019-01-27T06:18:14.328Z,-8.59
2019-01-27T06:20:44.769Z,-8.56
2019-01-27T06:23:11.981Z,-8.56
2019-01-27T06:25:41.080Z,-8.55
2019-01-27T06:28:12.289Z,-8.55
2019-01-27T06:30:40.900Z,-8.52
2019-01-27T06:33:36.875Z,-8.54
2019-01-27T06:36:04.332Z,-8.57
2019-01-27T06:38:31.736Z,-8.59
2019-01-27T06:41:00.514Z,-8.62
2019-01-27T06:43:31.831Z,-8.63
2019-01-27T06:46:02.472Z,-8.66
2019-01-27T06:48:31.996Z,-8.69
2019-01-27T06:50:59.247Z,-8.69
2019-01-27T06:53:28.207Z,-8.66
2019-01-27T06:55:55.506Z,-8.66
2019-01-27T06:58:28.014Z,-8.68
2019-01-27T07:01:09.595Z,-8.67
2019-01-27T07:03:44.440Z,-8.65
2019-01-27T07:06:31.323Z,-8.69
2019-01-27T07:09:24.928Z,-8.72
2019-01-27T07:12:17.486Z,-8.76
2019-01-27T07:15:20.153Z,-8.76
2019-01-27T07:18:02.021Z,-8.75
2019-01-27T07:20:49.856Z,-8.74
2019-01-27T07:23:28.290Z,-8.78
2019-01-27T07:26:23.908Z,-8.81
2019-01-27T07:29:10.000Z,-8.82
2019-01-27T07:32:00.991Z,-8.80
2019-01-27T07:35:01.031Z,-8.83
2019-01-27T07:37:46.335Z,-8.83
2019-01-27T07:40:40.389Z,-8.81
2019-01-27T07:43:32.825Z,-8.79
2019-01-27T07:46:27.172Z,-8.74
2019-01-27T07:49:19.155Z,-8.69
2019-01-27T07:52:04.737Z,-8.63
2019-01-27T07:54:54.232Z,-8.60
2019-01-27T07:57:31.501Z,-8.56
2019-01-27T08:00:28.140Z,-8.51
2019-01-27T08:03:19.359Z,-8.47
2019-01-27T08:05:58.910Z,-8.44
2019-01-27T08:08:51.267Z,-8.44
2019-01-27T08:11:38.336Z,-8.44
2019-01-27T08:14:31.187Z,-8.43
2019-01-27T08:17:22.551Z,-8.43
2019-01-27T08:20:24.396Z,-8.35
2019-01-27T08:22:58.711Z,-8.29
2019-01-27T08:25:44.128Z,-8.24
2019-01-27T08:28:37.897Z,-8.22
2019-01-27T08:31:35.429Z,-8.17
2019-01-27T08:34:21.490Z,-8.16
2019-01-27T08:36:55.138Z,-8.15
2019-01-27T08:39:50.564Z,-8.11
2019-01-27T08:42:45.694Z,-8.07
2019-01-27T08:45:27.756Z,-7.91
2019-01-27T08:47:54.888Z,-7.91
2019-01-27T08:50:22.366Z,-7.83
2019-01-27T08:52:49.466Z,-7.77
2019-01-27T08:55:16.587Z,-7.71
2019-01-27T08:57:43.716Z,-7.65
2019-01-27T09:00:17.071Z,-7.58
2019-01-27T09:02:51.829Z,-7.54
2019-01-27T09:05:34.347Z,-7.50
2019-01-27T09:08:19.529Z,-7.47
2019-01-27T09:11:06.329Z,-7.48
2019-01-27T09:13:48.558Z,-7.45
2019-01-27T09:16:50.484Z,-7.40
2019-01-27T09:19:43.008Z,-7.33
2019-01-27T09:22:32.978Z,-7.26
2019-01-27T09:25:30.905Z,-7.26
2019-01-27T09:28:20.620Z,-7.25
2019-01-27T09:30:58.804Z,-7.22
2019-01-27T09:33:54.838Z,-7.16
2019-01-27T09:36:40.827Z,-7.13
2019-01-27T09:39:28.468Z,-7.09
2019-01-27T09:42:30.041Z,-7.03
2019-01-27T09:45:15.509Z,-6.94
2019-01-27T09:47:58.517Z,-6.92
2019-01-27T09:50:58.448Z,-6.90
2019-01-27T09:53:45.340Z,-6.84
2019-01-27T09:56:30.707Z,-6.81
2019-01-27T09:59:18.447Z,-6.80
2019-01-27T10:01:54.661Z,-6.73
2019-01-27T10:04:27.912Z,-6.66
2019-01-27T10:07:06.744Z,-6.61
2019-01-27T10:09:55.130Z,-6.55
2019-01-27T10:12:49.781Z,-6.54
2019-01-27T10:15:39.885Z,-6.49
2019-01-27T10:18:35.931Z,-6.49
2019-01-27T10:21:24.744Z,-6.43
2019-01-27T10:24:29.851Z,-6.39
2019-01-27T10:27:37.422Z,-6.38
2019-01-27T10:30:23.221Z,-6.36
2019-01-27T10:33:07.173Z,-6.33
2019-01-27T10:35:56.447Z,-6.30
2019-01-27T10:38:33.084Z,-6.30
2019-01-27T10:41:20.084Z,-6.29
2019-01-27T10:44:15.977Z,-6.32
2019-01-27T10:47:07.265Z,-6.28
2019-01-27T10:49:52.785Z,-6.24
2019-01-27T10:52:51.522Z,-6.16
2019-01-27T10:55:42.931Z,-6.08
2019-01-27T10:58:49.704Z,-5.98
2019-01-27T11:01:36.619Z,-5.95
2019-01-27T11:04:24.771Z,-5.95
2019-01-27T11:07:29.718Z,-5.92
2019-01-27T11:10:16.026Z,-5.89
2019-01-27T11:13:09.697Z,-5.93
2019-01-27T11:15:44.139Z,-5.93
2019-01-27T11:18:26.599Z,-5.91
2019-01-27T11:21:23.065Z,-5.90
2019-01-27T11:24:12.915Z,-5.89
2019-01-27T11:27:04.086Z,-5.87
2019-01-27T11:29:44.530Z,-5.79
2019-01-27T11:32:25.904Z,-5.72
2019-01-27T11:35:12.088Z,-5.71
2019-01-27T11:37:59.490Z,-5.63
2019-01-27T11:40:50.349Z,-5.59
2019-01-27T11:43:29.751Z,-5.55
2019-01-27T11:46:09.714Z,-5.50
2019-01-27T11:48:58.263Z,-5.43
2019-01-27T11:51:33.406Z,-5.33
2019-01-27T11:54:00.514Z,-5.26
2019-01-27T11:56:27.752Z,-5.25
2019-01-27T11:58:55.159Z,-5.20
2019-01-27T12:01:22.639Z,-5.15
2019-01-27T12:03:54.249Z,-5.12
2019-01-27T12:06:22.810Z,-5.06
2019-01-27T12:08:50.174Z,-5.00
2019-01-27T12:11:21.396Z,-4.92
2019-01-27T12:13:49.677Z,-4.91
2019-01-27T12:16:20.753Z,-4.91
2019-01-27T12:18:47.866Z,-4.89
2019-01-27T12:21:15.157Z,-4.87
2019-01-27T12:23:42.503Z,-4.84
2019-01-27T12:26:09.632Z,-4.84
2019-01-27T12:28:36.955Z,-4.83
2019-01-27T12:31:04.335Z,-4.81
2019-01-27T12:33:31.731Z,-4.80
2019-01-27T12:36:00.968Z,-4.78
2019-01-27T12:38:28.219Z,-4.76
2019-01-27T12:40:55.537Z,-4.76
2019-01-27T12:43:22.937Z,-4.72
2019-01-27T12:45:52.982Z,-4.68
2019-01-27T12:48:22.177Z,-4.67
2019-01-27T12:50:53.208Z,-4.65
2019-01-27T12:53:22.312Z,-4.63
2019-01-27T12:55:49.811Z,-4.62
2019-01-27T12:58:16.967Z,-4.60
2019-01-27T13:00:48.918Z,-4.60
2019-01-27T13:03:16.148Z,-4.58
2019-01-27T13:05:45.356Z,-4.53
2019-01-27T13:08:12.710Z,-4.50
2019-01-27T13:10:41.826Z,-4.48
2019-01-27T13:13:12.025Z,-4.44
2019-01-27T13:15:38.401Z,-4.43
2019-01-27T13:18:07.411Z,-4.40
2019-01-27T13:20:37.213Z,-4.35
2019-01-27T13:23:06.111Z,-4.35
2019-01-27T13:25:35.695Z,-4.32
2019-01-27T13:28:03.022Z,-4.29
2019-01-27T13:30:30.103Z,-4.22
2019-01-27T13:32:57.226Z,-4.20
2019-01-27T13:35:24.621Z,-4.19
2019-01-27T13:37:52.773Z,-4.17
2019-01-27T13:40:20.738Z,-4.17
2019-01-27T13:42:47.966Z,-4.15
2019-01-27T13:45:17.398Z,-4.14
2019-01-27T13:47:45.012Z,-4.14
2019-01-27T13:50:12.339Z,-4.12
2019-01-27T13:52:39.476Z,-4.09
2019-01-27T13:55:09.893Z,-4.10
2019-01-27T13:57:37.142Z,-4.08
2019-01-27T14:00:09.109Z,-4.05
2019-01-27T14:02:36.205Z,-4.02
2019-01-27T14:05:06.457Z,-4.00
2019-01-27T14:07:35.766Z,-3.97
2019-01-27T14:10:04.343Z,-3.98
2019-01-27T14:12:31.586Z,-3.95
2019-01-27T14:14:59.069Z,-3.95
2019-01-27T14:17:28.028Z,-3.94
2019-01-27T14:19:56.294Z,-3.93
2019-01-27T14:22:25.976Z,-3.93
2019-01-27T14:24:54.518Z,-3.95
2019-01-27T14:27:21.646Z,-3.93
2019-01-27T14:29:48.973Z,-3.96
2019-01-27T14:32:16.126Z,-3.97
2019-01-27T14:34:45.088Z,-3.96
2019-01-27T14:37:12.463Z,-3.96
2019-01-27T14:39:42.848Z,-3.96
2019-01-27T14:42:11.378Z,-4.00
2019-01-27T14:44:40.456Z,-4.11
2019-01-27T14:47:07.716Z,-4.00
2019-01-27T14:49:39.809Z,-4.01
2019-01-27T14:52:07.080Z,-4.03
2019-01-27T14:54:35.306Z,-4.06
2019-01-27T14:57:02.675Z,-4.09
2019-01-27T14:59:31.264Z,-4.10
2019-01-27T15:02:02.051Z,-4.14
2019-01-27T15:04:29.547Z,-4.15
2019-01-27T15:06:58.695Z,-4.15
2019-01-27T15:09:28.194Z,-4.13
2019-01-27T15:11:57.302Z,-4.15
2019-01-27T15:14:25.512Z,-4.16
2019-01-27T15:16:53.918Z,-4.16
2019-01-27T15:19:23.072Z,-4.14
2019-01-27T15:21:50.188Z,-4.13
2019-01-27T15:24:17.294Z,-4.08
2019-01-27T15:26:46.282Z,-4.05
2019-01-27T15:29:15.333Z,-4.01
2019-01-27T15:31:44.454Z,-4.00
2019-01-27T15:34:11.852Z,-3.97
2019-01-27T15:36:40.989Z,-3.98
2019-01-27T15:39:10.909Z,-3.96
2019-01-27T15:41:40.902Z,-3.96
2019-01-27T15:44:10.973Z,-3.96
2019-01-27T15:46:39.854Z,-3.95
2019-01-27T15:49:09.972Z,-3.93
2019-01-27T15:51:37.360Z,-3.92
2019-01-27T15:54:06.189Z,-3.90
2019-01-27T15:56:33.257Z,-3.86
2019-01-27T15:59:00.680Z,-3.85
2019-01-27T16:01:29.040Z,-3.84
2019-01-27T16:03:59.094Z,-3.82
2019-01-27T16:06:26.727Z,-3.81
2019-01-27T16:08:53.959Z,-3.81
2019-01-27T16:11:21.248Z,-3.79
2019-01-27T16:13:48.501Z,-3.77
2019-01-27T16:16:17.723Z,-3.74
2019-01-27T16:18:46.914Z,-3.71
2019-01-27T16:21:18.418Z,-3.66
2019-01-27T16:23:52.260Z,-3.65
2019-01-27T16:26:19.616Z,-3.63
2019-01-27T16:28:50.967Z,-3.60
2019-01-27T16:31:37.864Z,-3.60
2019-01-27T16:34:22.751Z,-3.59
2019-01-27T16:36:49.960Z,-3.57
2019-01-27T16:39:20.127Z,-3.52
2019-01-27T16:41:50.431Z,-3.50
2019-01-27T16:44:19.525Z,-3.51
2019-01-27T16:46:48.696Z,-3.50
2019-01-27T16:49:17.082Z,-3.47
2019-01-27T16:51:49.221Z,-3.44
2019-01-27T16:54:14.986Z,-3.41
2019-01-27T16:56:43.362Z,-3.40
2019-01-27T16:59:12.473Z,-3.38
2019-01-27T17:01:39.824Z,-3.37
2019-01-27T17:04:07.580Z,-3.36
2019-01-27T17:06:34.689Z,-3.34
2019-01-27T17:09:05.101Z,-3.30
2019-01-27T17:11:35.217Z,-3.27
2019-01-27T17:14:02.740Z,-3.26
2019-01-27T17:16:30.767Z,-3.26
2019-01-27T17:18:57.869Z,-3.25
2019-01-27T17:21:25.222Z,-3.23
2019-01-27T17:23:52.569Z,-3.20
2019-01-27T17:26:22.529Z,-3.19
2019-01-27T17:28:53.419Z,-3.20
2019-01-27T17:31:23.648Z,-3.18
2019-01-27T17:33:53.364Z,-3.16
2019-01-27T17:36:22.983Z,-3.15
2019-01-27T17:38:51.439Z,-3.13
2019-01-27T17:41:18.797Z,-3.12
2019-01-27T17:43:47.356Z,-3.13
2019-01-27T17:46:14.735Z,-3.11
2019-01-27T17:48:42.160Z,-3.08
2019-01-27T17:51:09.564Z,-3.08
2019-01-27T17:53:43.594Z,-3.05
2019-01-27T17:56:12.787Z,-3.04
2019-01-27T17:59:11.266Z,-3.06
2019-01-27T18:01:52.760Z,-3.04
2019-01-27T18:04:29.828Z,-3.06
2019-01-27T18:07:15.509Z,-3.03
2019-01-27T18:10:12.413Z,-3.00
2019-01-27T18:12:50.731Z,-3.00
2019-01-27T18:15:18.173Z,-2.98
2019-01-27T18:17:46.624Z,-2.97
2019-01-27T18:20:14.085Z,-2.95
2019-01-27T18:22:42.428Z,-2.94
2019-01-27T18:25:10.745Z,-2.93
2019-01-27T18:27:39.070Z,-2.91
2019-01-27T18:30:09.224Z,-2.91
2019-01-27T18:32:37.879Z,-2.89
2019-01-27T18:35:05.484Z,-2.89
2019-01-27T18:37:33.003Z,-2.88
2019-01-27T18:40:02.033Z,-2.85
2019-01-27T18:42:29.421Z,-2.83
2019-01-27T18:44:57.651Z,-2.82
2019-01-27T18:47:25.008Z,-2.82
2019-01-27T18:49:52.255Z,-2.82
2019-01-27T18:52:19.358Z,-2.80
2019-01-27T18:55:07.721Z,-2.80
2019-01-27T18:58:00.963Z,-2.81
2019-01-27T19:00:41.026Z,-2.81
2019-01-27T19:03:23.697Z,-2.81
2019-01-27T19:06:16.181Z,-2.80
2019-01-27T19:09:11.693Z,-2.80
2019-01-27T19:11:47.909Z,-2.78
2019-01-27T19:14:45.064Z,-2.76
2019-01-27T19:17:36.669Z,-2.75
2019-01-27T19:20:26.612Z,-2.73
2019-01-27T19:23:16.392Z,-2.74
2019-01-27T19:26:11.006Z,-2.71
2019-01-27T19:29:01.653Z,-2.68
2019-01-27T19:31:51.664Z,-2.63
2019-01-27T19:34:42.451Z,-2.60
2019-01-27T19:37:26.334Z,-2.56
2019-01-27T19:40:17.777Z,-2.53
2019-01-27T19:43:07.222Z,-2.50
2019-01-27T19:45:53.230Z,-2.46
2019-01-27T19:48:43.876Z,-2.40
2019-01-27T19:51:25.620Z,-2.35
2019-01-27T19:54:29.622Z,-2.32
2019-01-27T19:57:25.747Z,-2.31
2019-01-27T20:00:06.543Z,-2.29
2019-01-27T20:02:52.088Z,-2.29
2019-01-27T20:05:51.866Z,-2.29
2019-01-27T20:08:34.859Z,-2.29
2019-01-27T20:11:12.415Z,-2.28
2019-01-27T20:14:02.401Z,-2.25
2019-01-27T20:16:47.920Z,-2.23
2019-01-27T20:19:34.827Z,-2.22
2019-01-27T20:22:35.446Z,-2.21
2019-01-27T20:25:28.898Z,-2.17
2019-01-27T20:28:15.028Z,-2.15
2019-01-27T20:31:08.147Z,-2.14
2019-01-27T20:34:03.777Z,-2.10
2019-01-27T20:36:52.291Z,-2.10
2019-01-27T20:39:41.692Z,-2.11
2019-01-27T20:42:31.508Z,-2.13
2019-01-27T20:45:21.317Z,-2.14
2019-01-27T20:47:56.476Z,-2.15
2019-01-27T20:50:49.092Z,-2.15
2019-01-27T20:53:39.185Z,-2.11
2019-01-27T20:56:25.937Z,-2.12
2019-01-27T20:59:04.531Z,-2.14
2019-01-27T21:01:46.611Z,-2.14
2019-01-27T21:04:28.665Z,-2.14
2019-01-27T21:07:08.392Z,-2.14
2019-01-27T21:09:55.078Z,-2.13
2019-01-27T21:12:43.766Z,-2.15
2019-01-27T21:15:35.914Z,-2.15
2019-01-27T21:18:18.569Z,-2.16
2019-01-27T21:20:45.900Z,-2.23
2019-01-27T21:23:14.689Z,-2.15
2019-01-27T21:25:44.267Z,-2.14
2019-01-27T21:28:11.848Z,-2.16
2019-01-27T21:30:39.039Z,-2.16
2019-01-27T21:33:06.283Z,-2.17
2019-01-27T21:35:33.536Z,-2.18
2019-01-27T21:38:03.539Z,-2.19
2019-01-27T21:40:30.793Z,-2.20
2019-01-27T21:42:58.340Z,-2.21
2019-01-27T21:45:26.430Z,-2.22
2019-01-27T21:47:53.628Z,-2.23
2019-01-27T21:50:20.749Z,-2.24
2019-01-27T21:52:48.075Z,-2.23
2019-01-27T21:55:15.306Z,-2.22
2019-01-27T21:57:42.424Z,-2.23
2019-01-27T22:00:12.589Z,-2.23
2019-01-27T22:02:40.824Z,-2.26
2019-01-27T22:05:08.237Z,-2.27
2019-01-27T22:07:35.459Z,-2.28
2019-01-27T22:10:03.521Z,-2.29
2019-01-27T22:12:30.622Z,-2.30
2019-01-27T22:14:58.847Z,-2.31
2019-01-27T22:17:26.131Z,-2.31
2019-01-27T22:19:53.230Z,-2.32
2019-01-27T22:22:20.537Z,-2.31
2019-01-27T22:24:49.548Z,-2.31
2019-01-27T22:27:18.456Z,-2.32
2019-01-27T22:29:45.676Z,-2.34
2019-01-27T22:32:13.876Z,-2.34
2019-01-27T22:34:41.308Z,-2.36
2019-01-27T22:37:09.485Z,-2.35
2019-01-27T22:39:36.575Z,-2.33
2019-01-27T22:42:03.996Z,-2.34
2019-01-27T22:44:32.478Z,-2.33
2019-01-27T22:46:59.938Z,-2.34
2019-01-27T22:49:27.032Z,-2.33
2019-01-27T22:51:54.131Z,-2.33
2019-01-27T22:54:21.241Z,-2.31
2019-01-27T22:56:48.357Z,-2.29
2019-01-27T22:59:15.444Z,-2.29
2019-01-27T23:01:44.284Z,-2.30
2019-01-27T23:04:11.677Z,-2.28
2019-01-27T23:06:39.082Z,-2.28
2019-01-27T23:09:12.985Z,-2.25
2019-01-27T23:11:40.080Z,-2.24
2019-01-27T23:14:07.275Z,-2.24
2019-01-27T23:16:34.676Z,-2.23
2019-01-27T23:19:01.780Z,-2.23
2019-01-27T23:21:28.870Z,-2.22
2019-01-27T23:23:57.135Z,-2.22
2019-01-27T23:26:24.237Z,-2.21
2019-01-27T23:28:51.349Z,-2.22
2019-01-27T23:31:18.437Z,-2.22
2019-01-27T23:33:47.457Z,-2.22
2019-01-27T23:36:14.586Z,-2.20
2019-01-27T23:38:44.620Z,-2.20
2019-01-27T23:41:11.869Z,-2.20
2019-01-27T23:43:40.827Z,-2.17
2019-01-27T23:46:09.149Z,-2.16
2019-01-27T23:48:39.149Z,-2.15
2019-01-27T23:51:06.436Z,-2.14
2019-01-27T23:53:34.567Z,-2.12
2019-01-27T23:56:01.896Z,-2.13
2019-01-27T23:58:29.200Z,-2.10
